Ora Direzione Vento Velocita' Vento Media Vento Raffica Max. Temperatura Wind Chill Pioggia Pressione
15:09:15.0222 °(SW)12.9 Kts14.0 Kts16.3 Kts18.7 °C18.26 °C0.0 mm1022.9 Hpa
14:48:17.0216 °(SW)11.3 Kts10.26 Kts14.0 Kts18.7 °C18.37 °C0.0 mm1022.9 Hpa
14:28:43.0213 °(SSW)12.4 Kts11.9 Kts14.0 Kts18.3 °C17.75 °C0.0 mm1022.9 Hpa
14:08:06.0219 °(SW)9.2 Kts12.1 Kts14.0 Kts18.5 °C18.33 °C0.0 mm1022.5 Hpa
13:48:29.0216 °(SW)10.3 Kts10.03 Kts13.8 Kts18.2 °C17.83 °C0.0 mm1017.9 Hpa
13:29:05.0221 °(SW)13.3 Kts10.96 Kts13.8 Kts18.2 °C17.54 °C0.0 mm1024.2 Hpa
13:08:39.0214 °(SW)9.8 Kts9.23 Kts13.4 Kts17.8 °C17.37 °C0.0 mm1022.1 Hpa
12:48:12.0212 °(SSW)9.9 Kts9.5 Kts12.9 Kts17.5 °C16.99 °C0.0 mm1023.8 Hpa
12:28:55.0210 °(SSW)8.5 Kts9.43 Kts11.4 Kts17.6 °C17.25 °C0.0 mm1027.1 Hpa
12:09:08.0214 °(SW)10.3 Kts9.53 Kts10.6 Kts17.3 °C16.7 °C0.0 mm1024.2 Hpa
11:48:46.0212 °(SSW)7.7 Kts8.6 Kts10.6 Kts17.2 °C16.89 °C0.0 mm1026.3 Hpa
11:28:25.0210 °(SSW)9.2 Kts9.26 Kts10.2 Kts16.6 °C15.97 °C0.0 mm1024.6 Hpa
11:09:13.0215 °(SW)7.3 Kts6.43 Kts7.8 Kts16.7 °C16.38 °C0.0 mm1025.0 Hpa
10:48:58.0214 °(SW)2.0 Kts2.06 Kts3.0 Kts16.5 °C17.48 °C0.0 mm1025.8 Hpa
10:28:34.0216 °(SW)0.9 Kts0.86 Kts3.0 Kts16.5 °C18.17 °C0.0 mm1025.4 Hpa
10:08:23.0222 °(SW)0.5 Kts0.56 Kts3.0 Kts16.6 °C18.7 °C0.0 mm1023.8 Hpa
09:49:05.0253 °(WSW)0.8 Kts0.0 Kts3.0 Kts16.5 °C18.25 °C0.0 mm1026.3 Hpa
09:28:49.00 °(N)0.0 Kts0.16 Kts3.0 Kts15.1 °C22.5 °C0.0 mm1025.0 Hpa
09:08:35.00 °(N)0.0 Kts0.46 Kts3.0 Kts14.6 °C22.19 °C0.0 mm1025.4 Hpa
08:48:12.00 °(N)0.0 Kts0.0 Kts3.0 Kts13.1 °C21.26 °C0.0 mm1025.4 Hpa